sensor_id;sensor_type;location;lat;lon;timestamp;temperature;humidity
10980;DHT22;5543;51.734;8.744;2022-12-18T00:00:28;-8.70;99.90
10980;DHT22;5543;51.734;8.744;2022-12-18T00:02:57;-8.70;99.90
10980;DHT22;5543;51.734;8.744;2022-12-18T00:05:27;-8.70;99.90
10980;DHT22;5543;51.734;8.744;2022-12-18T00:07:56;-8.80;99.90
10980;DHT22;5543;51.734;8.744;2022-12-18T00:10:28;-8.80;99.90
10980;DHT22;5543;51.734;8.744;2022-12-18T00:12:59;-8.80;99.90
10980;DHT22;5543;51.734;8.744;2022-12-18T00:15:36;-8.80;99.90
10980;DHT22;5543;51.734;8.744;2022-12-18T00:18:06;-8.90;99.90
10980;DHT22;5543;51.734;8.744;2022-12-18T00:20:39;-8.80;99.90
10980;DHT22;5543;51.734;8.744;2022-12-18T00:23:09;-8.90;99.90
10980;DHT22;5543;51.734;8.744;2022-12-18T00:25:39;-8.90;99.90
10980;DHT22;5543;51.734;8.744;2022-12-18T00:28:09;-8.90;99.90
10980;DHT22;5543;51.734;8.744;2022-12-18T00:30:38;-8.90;99.90
10980;DHT22;5543;51.734;8.744;2022-12-18T00:33:07;-8.90;99.90
10980;DHT22;5543;51.734;8.744;2022-12-18T00:35:36;-8.90;99.90
10980;DHT22;5543;51.734;8.744;2022-12-18T00:38:04;-8.90;99.90
10980;DHT22;5543;51.734;8.744;2022-12-18T00:40:33;-8.90;99.90
10980;DHT22;5543;51.734;8.744;2022-12-18T00:43:01;-8.90;99.90
10980;DHT22;5543;51.734;8.744;2022-12-18T00:45:31;-8.90;99.90
10980;DHT22;5543;51.734;8.744;2022-12-18T00:47:59;-8.90;99.90
10980;DHT22;5543;51.734;8.744;2022-12-18T00:50:28;-8.90;99.90
10980;DHT22;5543;51.734;8.744;2022-12-18T00:52:57;-8.80;99.90
10980;DHT22;5543;51.734;8.744;2022-12-18T00:55:26;-8.90;99.90
10980;DHT22;5543;51.734;8.744;2022-12-18T00:57:55;-8.90;99.90
10980;DHT22;5543;51.734;8.744;2022-12-18T01:00:23;-8.90;99.90
10980;DHT22;5543;51.734;8.744;2022-12-18T01:02:54;-9.00;99.90
10980;DHT22;5543;51.734;8.744;2022-12-18T01:05:25;-9.00;99.90
10980;DHT22;5543;51.734;8.744;2022-12-18T01:07:56;-9.00;99.90
10980;DHT22;5543;51.734;8.744;2022-12-18T01:10:26;-9.00;99.90
10980;DHT22;5543;51.734;8.744;2022-12-18T01:12:56;-9.00;99.90
10980;DHT22;5543;51.734;8.744;2022-12-18T01:15:26;-9.00;99.90
10980;DHT22;5543;51.734;8.744;2022-12-18T01:17:56;-9.00;99.90
10980;DHT22;5543;51.734;8.744;2022-12-18T01:20:24;-9.00;99.90
10980;DHT22;5543;51.734;8.744;2022-12-18T01:22:53;-9.00;99.90
10980;DHT22;5543;51.734;8.744;2022-12-18T01:25:21;-9.00;99.90
10980;DHT22;5543;51.734;8.744;2022-12-18T01:27:49;-8.90;99.90
10980;DHT22;5543;51.734;8.744;2022-12-18T01:30:17;-8.90;99.90
10980;DHT22;5543;51.734;8.744;2022-12-18T01:32:45;-8.90;99.90
10980;DHT22;5543;51.734;8.744;2022-12-18T01:35:15;-8.90;99.90
10980;DHT22;5543;51.734;8.744;2022-12-18T01:37:43;-8.90;99.90
10980;DHT22;5543;51.734;8.744;2022-12-18T01:40:11;-8.60;99.90
10980;DHT22;5543;51.734;8.744;2022-12-18T01:42:39;-8.80;99.90
10980;DHT22;5543;51.734;8.744;2022-12-18T01:45:23;-8.50;99.90
10980;DHT22;5543;51.734;8.744;2022-12-18T01:47:54;-8.80;99.90
10980;DHT22;5543;51.734;8.744;2022-12-18T01:50:28;-8.80;99.90
10980;DHT22;5543;51.734;8.744;2022-12-18T01:53:00;-8.70;99.90
10980;DHT22;5543;51.734;8.744;2022-12-18T01:55:32;-8.70;99.90
10980;DHT22;5543;51.734;8.744;2022-12-18T01:58:04;-8.60;99.90
10980;DHT22;5543;51.734;8.744;2022-12-18T02:00:32;-8.60;99.90
10980;DHT22;5543;51.734;8.744;2022-12-18T02:03:00;-8.50;99.90
10980;DHT22;5543;51.734;8.744;2022-12-18T02:05:36;-8.40;99.90
10980;DHT22;5543;51.734;8.744;2022-12-18T02:08:10;-8.40;99.90
10980;DHT22;5543;51.734;8.744;2022-12-18T02:10:45;-8.40;99.90
10980;DHT22;5543;51.734;8.744;2022-12-18T02:13:20;-8.20;99.90
10980;DHT22;5543;51.734;8.744;2022-12-18T02:15:55;-7.90;99.90
10980;DHT22;5543;51.734;8.744;2022-12-18T02:18:30;-7.60;99.90
10980;DHT22;5543;51.734;8.744;2022-12-18T02:21:08;-7.50;99.90
10980;DHT22;5543;51.734;8.744;2022-12-18T02:23:48;-7.40;99.90
10980;DHT22;5543;51.734;8.744;2022-12-18T02:26:22;-7.20;99.90
10980;DHT22;5543;51.734;8.744;2022-12-18T02:28:56;-7.10;99.90
10980;DHT22;5543;51.734;8.744;2022-12-18T02:31:28;-7.10;99.90
10980;DHT22;5543;51.734;8.744;2022-12-18T02:34:01;-6.80;99.90
10980;DHT22;5543;51.734;8.744;2022-12-18T02:36:32;-7.10;99.90
10980;DHT22;5543;51.734;8.744;2022-12-18T02:39:01;-7.20;99.90
10980;DHT22;5543;51.734;8.744;2022-12-18T02:41:31;-7.10;99.90
10980;DHT22;5543;51.734;8.744;2022-12-18T02:44:01;-7.00;99.90
10980;DHT22;5543;51.734;8.744;2022-12-18T02:46:36;-6.80;99.90
10980;DHT22;5543;51.734;8.744;2022-12-18T02:49:20;-6.60;99.90
10980;DHT22;5543;51.734;8.744;2022-12-18T02:51:53;-6.60;99.90
10980;DHT22;5543;51.734;8.744;2022-12-18T02:54:41;-6.50;99.90
10980;DHT22;5543;51.734;8.744;2022-12-18T02:57:18;-6.50;99.90
10980;DHT22;5543;51.734;8.744;2022-12-18T02:59:55;-6.40;99.90
10980;DHT22;5543;51.734;8.744;2022-12-18T03:02:29;-6.40;99.90
10980;DHT22;5543;51.734;8.744;2022-12-18T03:05:02;-6.30;99.90
10980;DHT22;5543;51.734;8.744;2022-12-18T03:07:37;-6.40;99.90
10980;DHT22;5543;51.734;8.744;2022-12-18T03:10:08;-6.60;99.90
10980;DHT22;5543;51.734;8.744;2022-12-18T03:12:43;-6.70;99.90
10980;DHT22;5543;51.734;8.744;2022-12-18T03:15:16;-6.80;99.90
10980;DHT22;5543;51.734;8.744;2022-12-18T03:17:50;-6.70;99.90
10980;DHT22;5543;51.734;8.744;2022-12-18T03:20:22;-6.70;99.90
10980;DHT22;5543;51.734;8.744;2022-12-18T03:22:53;-6.70;99.90
10980;DHT22;5543;51.734;8.744;2022-12-18T03:25:26;-6.70;99.90
10980;DHT22;5543;51.734;8.744;2022-12-18T03:27:59;-6.50;99.90
10980;DHT22;5543;51.734;8.744;2022-12-18T03:30:29;-6.30;99.90
10980;DHT22;5543;51.734;8.744;2022-12-18T03:33:02;-6.20;99.90
10980;DHT22;5543;51.734;8.744;2022-12-18T03:35:36;-6.20;99.90
10980;DHT22;5543;51.734;8.744;2022-12-18T03:38:05;-6.20;99.90
10980;DHT22;5543;51.734;8.744;2022-12-18T03:40:41;-6.20;99.90
10980;DHT22;5543;51.734;8.744;2022-12-18T03:43:18;-6.20;99.90
10980;DHT22;5543;51.734;8.744;2022-12-18T03:45:53;-6.00;99.90
10980;DHT22;5543;51.734;8.744;2022-12-18T03:48:28;-5.90;99.90
10980;DHT22;5543;51.734;8.744;2022-12-18T03:51:00;-5.80;99.90
10980;DHT22;5543;51.734;8.744;2022-12-18T03:53:36;-5.70;99.90
10980;DHT22;5543;51.734;8.744;2022-12-18T03:56:06;-5.70;99.90
10980;DHT22;5543;51.734;8.744;2022-12-18T03:58:38;-5.70;99.90
10980;DHT22;5543;51.734;8.744;2022-12-18T04:01:09;-5.60;99.90
10980;DHT22;5543;51.734;8.744;2022-12-18T04:03:40;-5.60;99.90
10980;DHT22;5543;51.734;8.744;2022-12-18T04:06:10;-5.60;99.90
10980;DHT22;5543;51.734;8.744;2022-12-18T04:08:39;-5.50;99.90
10980;DHT22;5543;51.734;8.744;2022-12-18T04:11:08;-5.50;99.90
10980;DHT22;5543;51.734;8.744;2022-12-18T04:13:38;-5.50;99.90
10980;DHT22;5543;51.734;8.744;2022-12-18T04:16:07;-5.50;99.90
10980;DHT22;5543;51.734;8.744;2022-12-18T04:18:36;-5.40;99.90
10980;DHT22;5543;51.734;8.744;2022-12-18T04:21:05;-5.30;99.90
10980;DHT22;5543;51.734;8.744;2022-12-18T04:23:33;-5.30;99.90
10980;DHT22;5543;51.734;8.744;2022-12-18T04:26:01;-5.30;99.90
10980;DHT22;5543;51.734;8.744;2022-12-18T04:28:29;-5.30;99.90
10980;DHT22;5543;51.734;8.744;2022-12-18T04:30:58;-5.30;99.90
10980;DHT22;5543;51.734;8.744;2022-12-18T04:33:26;-5.30;99.90
10980;DHT22;5543;51.734;8.744;2022-12-18T04:35:55;-5.30;99.90
10980;DHT22;5543;51.734;8.744;2022-12-18T04:38:23;-5.40;99.90
10980;DHT22;5543;51.734;8.744;2022-12-18T04:40:51;-5.40;99.90
10980;DHT22;5543;51.734;8.744;2022-12-18T04:43:19;-5.40;99.90
10980;DHT22;5543;51.734;8.744;2022-12-18T04:45:47;-5.40;99.90
10980;DHT22;5543;51.734;8.744;2022-12-18T04:48:16;-5.40;99.90
10980;DHT22;5543;51.734;8.744;2022-12-18T04:50:44;-5.40;99.90
10980;DHT22;5543;51.734;8.744;2022-12-18T04:53:12;-5.40;99.90
10980;DHT22;5543;51.734;8.744;2022-12-18T04:55:40;-5.40;99.90
10980;DHT22;5543;51.734;8.744;2022-12-18T04:58:09;-5.50;99.90
10980;DHT22;5543;51.734;8.744;2022-12-18T05:00:38;-5.60;99.90
10980;DHT22;5543;51.734;8.744;2022-12-18T05:03:06;-5.60;99.90
10980;DHT22;5543;51.734;8.744;2022-12-18T05:05:36;-5.70;99.90
10980;DHT22;5543;51.734;8.744;2022-12-18T05:08:04;-5.60;99.90
10980;DHT22;5543;51.734;8.744;2022-12-18T05:10:32;-5.70;99.90
10980;DHT22;5543;51.734;8.744;2022-12-18T05:13:04;-5.70;99.90
10980;DHT22;5543;51.734;8.744;2022-12-18T05:15:32;-5.80;99.90
10980;DHT22;5543;51.734;8.744;2022-12-18T05:18:02;-5.90;99.90
10980;DHT22;5543;51.734;8.744;2022-12-18T05:20:30;-6.00;99.90
10980;DHT22;5543;51.734;8.744;2022-12-18T05:23:00;-6.00;99.90
10980;DHT22;5543;51.734;8.744;2022-12-18T05:25:28;-6.00;99.90
10980;DHT22;5543;51.734;8.744;2022-12-18T05:27:56;-5.90;99.90
10980;DHT22;5543;51.734;8.744;2022-12-18T05:30:25;-5.80;99.90
10980;DHT22;5543;51.734;8.744;2022-12-18T05:32:54;-5.70;99.90
10980;DHT22;5543;51.734;8.744;2022-12-18T05:35:22;-5.60;99.90
10980;DHT22;5543;51.734;8.744;2022-12-18T05:37:50;-5.60;99.90
10980;DHT22;5543;51.734;8.744;2022-12-18T05:40:21;-5.50;99.90
10980;DHT22;5543;51.734;8.744;2022-12-18T05:42:49;-5.50;99.90
10980;DHT22;5543;51.734;8.744;2022-12-18T05:45:17;-5.10;99.90
10980;DHT22;5543;51.734;8.744;2022-12-18T05:47:45;-5.40;99.90
10980;DHT22;5543;51.734;8.744;2022-12-18T05:50:13;-5.40;99.90
10980;DHT22;5543;51.734;8.744;2022-12-18T05:52:41;-5.30;99.90
10980;DHT22;5543;51.734;8.744;2022-12-18T05:55:09;-5.30;99.90
10980;DHT22;5543;51.734;8.744;2022-12-18T05:57:39;-5.30;99.90
10980;DHT22;5543;51.734;8.744;2022-12-18T06:00:08;-5.30;99.90
10980;DHT22;5543;51.734;8.744;2022-12-18T06:02:37;-5.30;99.90
10980;DHT22;5543;51.734;8.744;2022-12-18T06:05:05;-5.30;99.90
10980;DHT22;5543;51.734;8.744;2022-12-18T06:07:33;-5.30;99.90
10980;DHT22;5543;51.734;8.744;2022-12-18T06:10:02;-5.30;99.90
10980;DHT22;5543;51.734;8.744;2022-12-18T06:12:30;-5.30;99.90
10980;DHT22;5543;51.734;8.744;2022-12-18T06:15:01;-5.20;99.90
10980;DHT22;5543;51.734;8.744;2022-12-18T06:17:29;-5.20;99.90
10980;DHT22;5543;51.734;8.744;2022-12-18T06:19:58;-5.20;99.90
10980;DHT22;5543;51.734;8.744;2022-12-18T06:22:26;-5.20;99.90
10980;DHT22;5543;51.734;8.744;2022-12-18T06:24:54;-5.10;99.90
10980;DHT22;5543;51.734;8.744;2022-12-18T06:27:22;-4.90;99.90
10980;DHT22;5543;51.734;8.744;2022-12-18T06:29:50;-5.00;99.90
10980;DHT22;5543;51.734;8.744;2022-12-18T06:32:19;-4.90;99.90
10980;DHT22;5543;51.734;8.744;2022-12-18T06:34:50;-4.80;99.90
10980;DHT22;5543;51.734;8.744;2022-12-18T06:37:18;-4.70;99.90
10980;DHT22;5543;51.734;8.744;2022-12-18T06:39:46;-4.70;99.90
10980;DHT22;5543;51.734;8.744;2022-12-18T06:42:14;-4.60;99.90
10980;DHT22;5543;51.734;8.744;2022-12-18T06:44:42;-4.60;99.90
10980;DHT22;5543;51.734;8.744;2022-12-18T06:47:10;-4.50;99.90
10980;DHT22;5543;51.734;8.744;2022-12-18T06:49:39;-4.50;99.90
10980;DHT22;5543;51.734;8.744;2022-12-18T06:52:07;-4.50;99.90
10980;DHT22;5543;51.734;8.744;2022-12-18T06:54:35;-4.50;99.90
10980;DHT22;5543;51.734;8.744;2022-12-18T06:57:03;-4.50;99.90
10980;DHT22;5543;51.734;8.744;2022-12-18T06:59:31;-4.50;99.90
10980;DHT22;5543;51.734;8.744;2022-12-18T07:01:59;-4.40;99.90
10980;DHT22;5543;51.734;8.744;2022-12-18T07:04:28;-4.40;99.90
10980;DHT22;5543;51.734;8.744;2022-12-18T07:06:57;-4.40;99.90
10980;DHT22;5543;51.734;8.744;2022-12-18T07:09:25;-4.50;99.90
10980;DHT22;5543;51.734;8.744;2022-12-18T07:11:56;-4.50;99.90
10980;DHT22;5543;51.734;8.744;2022-12-18T07:14:25;-4.50;99.90
10980;DHT22;5543;51.734;8.744;2022-12-18T07:16:53;-4.40;99.90
10980;DHT22;5543;51.734;8.744;2022-12-18T07:19:22;-4.30;99.90
10980;DHT22;5543;51.734;8.744;2022-12-18T07:21:53;-4.30;99.90
10980;DHT22;5543;51.734;8.744;2022-12-18T07:24:22;-4.40;99.90
10980;DHT22;5543;51.734;8.744;2022-12-18T07:26:50;-4.30;99.90
10980;DHT22;5543;51.734;8.744;2022-12-18T07:29:18;-4.30;99.90
10980;DHT22;5543;51.734;8.744;2022-12-18T07:31:46;-4.30;99.90
10980;DHT22;5543;51.734;8.744;2022-12-18T07:34:19;-4.20;99.90
10980;DHT22;5543;51.734;8.744;2022-12-18T07:36:47;-4.20;99.90
10980;DHT22;5543;51.734;8.744;2022-12-18T07:39:15;-4.00;99.90
10980;DHT22;5543;51.734;8.744;2022-12-18T07:41:44;-4.20;99.90
10980;DHT22;5543;51.734;8.744;2022-12-18T07:44:33;-4.10;99.90
10980;DHT22;5543;51.734;8.744;2022-12-18T07:47:01;-4.10;99.90
10980;DHT22;5543;51.734;8.744;2022-12-18T07:49:36;-4.00;99.90
10980;DHT22;5543;51.734;8.744;2022-12-18T07:52:04;-4.00;99.90
10980;DHT22;5543;51.734;8.744;2022-12-18T07:54:33;-3.90;99.90
10980;DHT22;5543;51.734;8.744;2022-12-18T07:57:02;-3.90;99.90
10980;DHT22;5543;51.734;8.744;2022-12-18T07:59:47;-3.80;99.90
10980;DHT22;5543;51.734;8.744;2022-12-18T08:02:15;-3.70;99.90
10980;DHT22;5543;51.734;8.744;2022-12-18T08:04:43;-3.70;99.90
10980;DHT22;5543;51.734;8.744;2022-12-18T08:07:11;-3.50;99.90
10980;DHT22;5543;51.734;8.744;2022-12-18T08:09:40;-3.50;99.90
10980;DHT22;5543;51.734;8.744;2022-12-18T08:12:10;-3.60;99.90
10980;DHT22;5543;51.734;8.744;2022-12-18T08:14:37;-3.50;99.90
10980;DHT22;5543;51.734;8.744;2022-12-18T08:17:06;-3.40;99.90
10980;DHT22;5543;51.734;8.744;2022-12-18T08:19:34;-3.50;99.90
10980;DHT22;5543;51.734;8.744;2022-12-18T08:22:02;-3.40;99.90
10980;DHT22;5543;51.734;8.744;2022-12-18T08:24:30;-3.40;99.90
10980;DHT22;5543;51.734;8.744;2022-12-18T08:26:58;-3.30;99.90
10980;DHT22;5543;51.734;8.744;2022-12-18T08:29:47;-3.30;99.90
10980;DHT22;5543;51.734;8.744;2022-12-18T08:32:15;-3.20;99.90
10980;DHT22;5543;51.734;8.744;2022-12-18T08:34:44;-3.10;99.90
10980;DHT22;5543;51.734;8.744;2022-12-18T08:37:12;-3.00;99.90
10980;DHT22;5543;51.734;8.744;2022-12-18T08:39:41;-2.80;99.90
10980;DHT22;5543;51.734;8.744;2022-12-18T08:42:10;-2.60;99.90
10980;DHT22;5543;51.734;8.744;2022-12-18T08:44:57;-2.30;99.90
10980;DHT22;5543;51.734;8.744;2022-12-18T08:47:25;-2.00;99.90
10980;DHT22;5543;51.734;8.744;2022-12-18T08:49:53;-1.80;99.90
10980;DHT22;5543;51.734;8.744;2022-12-18T08:52:21;-1.90;99.90
10980;DHT22;5543;51.734;8.744;2022-12-18T08:54:49;-1.90;99.90
10980;DHT22;5543;51.734;8.744;2022-12-18T08:57:17;-1.80;99.90
10980;DHT22;5543;51.734;8.744;2022-12-18T08:59:45;-1.60;99.90
10980;DHT22;5543;51.734;8.744;2022-12-18T09:02:15;-1.40;99.90
10980;DHT22;5543;51.734;8.744;2022-12-18T09:04:43;-0.80;99.90
10980;DHT22;5543;51.734;8.744;2022-12-18T09:07:13;-0.30;99.70
10980;DHT22;5543;51.734;8.744;2022-12-18T09:09:41;0.30;98.90
10980;DHT22;5543;51.734;8.744;2022-12-18T09:12:09;0.60;98.20
10980;DHT22;5543;51.734;8.744;2022-12-18T09:14:38;1.00;97.90
10980;DHT22;5543;51.734;8.744;2022-12-18T09:17:06;0.80;97.60
10980;DHT22;5543;51.734;8.744;2022-12-18T09:19:36;1.30;97.50
10980;DHT22;5543;51.734;8.744;2022-12-18T09:22:05;1.50;97.10
10980;DHT22;5543;51.734;8.744;2022-12-18T09:24:33;2.00;96.70
10980;DHT22;5543;51.734;8.744;2022-12-18T09:27:02;2.40;95.90
10980;DHT22;5543;51.734;8.744;2022-12-18T09:29:30;2.60;95.30
10980;DHT22;5543;51.734;8.744;2022-12-18T09:31:59;1.70;94.50
10980;DHT22;5543;51.734;8.744;2022-12-18T09:34:27;1.30;95.10
10980;DHT22;5543;51.734;8.744;2022-12-18T09:36:58;0.90;96.20
10980;DHT22;5543;51.734;8.744;2022-12-18T09:39:28;0.70;96.10
10980;DHT22;5543;51.734;8.744;2022-12-18T09:41:58;0.50;96.60
10980;DHT22;5543;51.734;8.744;2022-12-18T09:44:28;0.60;96.90
10980;DHT22;5543;51.734;8.744;2022-12-18T09:47:04;0.70;96.50
10980;DHT22;5543;51.734;8.744;2022-12-18T09:49:39;0.70;96.40
10980;DHT22;5543;51.734;8.744;2022-12-18T09:52:14;0.50;96.10
10980;DHT22;5543;51.734;8.744;2022-12-18T09:54:46;0.40;96.60
10980;DHT22;5543;51.734;8.744;2022-12-18T09:57:17;0.30;96.80
10980;DHT22;5543;51.734;8.744;2022-12-18T09:59:51;0.30;96.80
10980;DHT22;5543;51.734;8.744;2022-12-18T10:02:22;0.30;96.70
10980;DHT22;5543;51.734;8.744;2022-12-18T10:05:03;0.60;96.90
10980;DHT22;5543;51.734;8.744;2022-12-18T10:07:52;0.40;96.40
10980;DHT22;5543;51.734;8.744;2022-12-18T10:10:34;0.50;96.80
10980;DHT22;5543;51.734;8.744;2022-12-18T10:13:14;0.60;96.30
10980;DHT22;5543;51.734;8.744;2022-12-18T10:15:51;0.70;96.60
10980;DHT22;5543;51.734;8.744;2022-12-18T10:18:33;0.80;96.10
10980;DHT22;5543;51.734;8.744;2022-12-18T10:21:10;1.10;96.10
10980;DHT22;5543;51.734;8.744;2022-12-18T10:23:48;1.40;95.70
10980;DHT22;5543;51.734;8.744;2022-12-18T10:26:20;1.60;95.30
10980;DHT22;5543;51.734;8.744;2022-12-18T10:28:49;1.50;94.90
10980;DHT22;5543;51.734;8.744;2022-12-18T10:31:21;1.40;95.10
10980;DHT22;5543;51.734;8.744;2022-12-18T10:33:50;1.40;95.60
10980;DHT22;5543;51.734;8.744;2022-12-18T10:36:20;1.40;95.00
10980;DHT22;5543;51.734;8.744;2022-12-18T10:38:51;1.60;95.30
10980;DHT22;5543;51.734;8.744;2022-12-18T10:41:25;1.60;94.90
10980;DHT22;5543;51.734;8.744;2022-12-18T10:44:16;1.30;94.90
10980;DHT22;5543;51.734;8.744;2022-12-18T10:46:45;1.20;94.90
10980;DHT22;5543;51.734;8.744;2022-12-18T10:49:25;1.60;95.00
10980;DHT22;5543;51.734;8.744;2022-12-18T10:52:07;1.30;94.80
10980;DHT22;5543;51.734;8.744;2022-12-18T10:54:47;1.40;95.30
10980;DHT22;5543;51.734;8.744;2022-12-18T10:57:31;1.20;94.80
10980;DHT22;5543;51.734;8.744;2022-12-18T11:00:20;0.80;95.10
10980;DHT22;5543;51.734;8.744;2022-12-18T11:02:49;0.80;95.50
10980;DHT22;5543;51.734;8.744;2022-12-18T11:05:27;0.80;95.20
10980;DHT22;5543;51.734;8.744;2022-12-18T11:07:57;0.70;95.40
10980;DHT22;5543;51.734;8.744;2022-12-18T11:10:31;0.50;95.20
10980;DHT22;5543;51.734;8.744;2022-12-18T11:13:11;0.50;95.50
10980;DHT22;5543;51.734;8.744;2022-12-18T11:15:41;0.50;95.80
10980;DHT22;5543;51.734;8.744;2022-12-18T11:18:17;0.40;95.80
10980;DHT22;5543;51.734;8.744;2022-12-18T11:20:51;0.40;95.80
10980;DHT22;5543;51.734;8.744;2022-12-18T11:23:24;0.40;95.90
10980;DHT22;5543;51.734;8.744;2022-12-18T11:25:57;0.40;95.60
10980;DHT22;5543;51.734;8.744;2022-12-18T11:28:38;0.30;95.80
10980;DHT22;5543;51.734;8.744;2022-12-18T11:31:21;0.30;96.20
10980;DHT22;5543;51.734;8.744;2022-12-18T11:33:58;0.40;96.10
10980;DHT22;5543;51.734;8.744;2022-12-18T11:36:48;0.50;96.10
10980;DHT22;5543;51.734;8.744;2022-12-18T11:39:18;0.60;95.90
10980;DHT22;5543;51.734;8.744;2022-12-18T11:41:53;0.70;95.80
10980;DHT22;5543;51.734;8.744;2022-12-18T11:44:42;0.60;95.90
10980;DHT22;5543;51.734;8.744;2022-12-18T11:47:19;0.70;95.90
10980;DHT22;5543;51.734;8.744;2022-12-18T11:49:50;0.80;96.10
10980;DHT22;5543;51.734;8.744;2022-12-18T11:52:22;0.80;95.40
10980;DHT22;5543;51.734;8.744;2022-12-18T11:54:52;0.70;94.90
10980;DHT22;5543;51.734;8.744;2022-12-18T11:57:31;0.80;94.90
10980;DHT22;5543;51.734;8.744;2022-12-18T12:00:09;0.90;95.00
10980;DHT22;5543;51.734;8.744;2022-12-18T12:05:44;0.90;94.60
10980;DHT22;5543;51.734;8.744;2022-12-18T12:08:21;0.80;94.60
10980;DHT22;5543;51.734;8.744;2022-12-18T12:11:02;0.90;94.90
10980;DHT22;5543;51.734;8.744;2022-12-18T12:13:41;0.80;94.70
10980;DHT22;5543;51.734;8.744;2022-12-18T12:16:17;0.80;95.00
10980;DHT22;5543;51.734;8.744;2022-12-18T12:21:24;0.90;95.50
10980;DHT22;5543;51.734;8.744;2022-12-18T12:24:02;0.80;95.20
10980;DHT22;5543;51.734;8.744;2022-12-18T12:26:38;0.80;95.50
10980;DHT22;5543;51.734;8.744;2022-12-18T12:29:31;0.80;95.60
10980;DHT22;5543;51.734;8.744;2022-12-18T12:32:19;0.80;95.40
10980;DHT22;5543;51.734;8.744;2022-12-18T12:34:55;0.80;95.50
10980;DHT22;5543;51.734;8.744;2022-12-18T12:37:44;0.70;95.70
10980;DHT22;5543;51.734;8.744;2022-12-18T12:40:18;0.70;95.80
10980;DHT22;5543;51.734;8.744;2022-12-18T12:43:21;0.60;95.80
10980;DHT22;5543;51.734;8.744;2022-12-18T12:45:57;0.70;95.60
10980;DHT22;5543;51.734;8.744;2022-12-18T12:48:42;0.80;95.50
10980;DHT22;5543;51.734;8.744;2022-12-18T12:51:16;0.80;95.40
10980;DHT22;5543;51.734;8.744;2022-12-18T12:53:49;0.80;95.10
10980;DHT22;5543;51.734;8.744;2022-12-18T12:56:21;0.70;94.90
10980;DHT22;5543;51.734;8.744;2022-12-18T12:58:58;0.70;94.70
10980;DHT22;5543;51.734;8.744;2022-12-18T13:01:38;0.70;95.10
10980;DHT22;5543;51.734;8.744;2022-12-18T13:04:19;0.70;95.10
10980;DHT22;5543;51.734;8.744;2022-12-18T13:06:56;0.70;95.00
10980;DHT22;5543;51.734;8.744;2022-12-18T13:09:31;0.70;95.00
10980;DHT22;5543;51.734;8.744;2022-12-18T13:12:07;0.60;95.50
10980;DHT22;5543;51.734;8.744;2022-12-18T13:15:13;0.60;95.20
10980;DHT22;5543;51.734;8.744;2022-12-18T13:21:19;0.50;95.20
10980;DHT22;5543;51.734;8.744;2022-12-18T13:23:51;0.50;95.30
10980;DHT22;5543;51.734;8.744;2022-12-18T13:26:31;0.50;95.10
10980;DHT22;5543;51.734;8.744;2022-12-18T13:29:02;0.40;95.10
10980;DHT22;5543;51.734;8.744;2022-12-18T13:31:58;0.50;95.40
10980;DHT22;5543;51.734;8.744;2022-12-18T13:34:29;0.40;95.20
10980;DHT22;5543;51.734;8.744;2022-12-18T13:40:05;0.30;95.10
10980;DHT22;5543;51.734;8.744;2022-12-18T13:42:49;0.30;95.60
10980;DHT22;5543;51.734;8.744;2022-12-18T13:45:41;0.20;95.70
10980;DHT22;5543;51.734;8.744;2022-12-18T13:48:22;0.20;95.20
10980;DHT22;5543;51.734;8.744;2022-12-18T13:50:58;0.20;95.30
10980;DHT22;5543;51.734;8.744;2022-12-18T13:53:32;0.20;95.40
10980;DHT22;5543;51.734;8.744;2022-12-18T13:56:03;0.10;95.70
10980;DHT22;5543;51.734;8.744;2022-12-18T13:58:33;0.10;95.50
10980;DHT22;5543;51.734;8.744;2022-12-18T14:01:02;0.10;95.70
10980;DHT22;5543;51.734;8.744;2022-12-18T14:03:31;0.00;95.60
10980;DHT22;5543;51.734;8.744;2022-12-18T14:06:04;0.00;95.80
10980;DHT22;5543;51.734;8.744;2022-12-18T14:08:38;0.00;95.90
10980;DHT22;5543;51.734;8.744;2022-12-18T14:11:19;-0.10;96.20
10980;DHT22;5543;51.734;8.744;2022-12-18T14:13:49;-0.10;96.20
10980;DHT22;5543;51.734;8.744;2022-12-18T14:16:18;-0.20;96.40
10980;DHT22;5543;51.734;8.744;2022-12-18T14:18:50;0.10;96.50
10980;DHT22;5543;51.734;8.744;2022-12-18T14:21:32;-0.10;96.60
10980;DHT22;5543;51.734;8.744;2022-12-18T14:24:13;-0.20;96.70
10980;DHT22;5543;51.734;8.744;2022-12-18T14:26:46;-0.30;97.00
10980;DHT22;5543;51.734;8.744;2022-12-18T14:29:24;-0.40;96.60
10980;DHT22;5543;51.734;8.744;2022-12-18T14:32:18;-0.40;97.00
10980;DHT22;5543;51.734;8.744;2022-12-18T14:35:13;-0.40;96.90
10980;DHT22;5543;51.734;8.744;2022-12-18T14:38:18;-0.50;97.30
10980;DHT22;5543;51.734;8.744;2022-12-18T14:40:54;-0.50;97.40
10980;DHT22;5543;51.734;8.744;2022-12-18T14:43:33;-0.60;97.60
10980;DHT22;5543;51.734;8.744;2022-12-18T14:46:05;-0.60;97.60
10980;DHT22;5543;51.734;8.744;2022-12-18T14:48:38;-0.60;97.60
10980;DHT22;5543;51.734;8.744;2022-12-18T14:51:15;-0.70;97.80
10980;DHT22;5543;51.734;8.744;2022-12-18T14:53:52;-0.60;97.30
10980;DHT22;5543;51.734;8.744;2022-12-18T14:56:25;-0.70;97.90
10980;DHT22;5543;51.734;8.744;2022-12-18T14:58:56;-0.70;97.50
10980;DHT22;5543;51.734;8.744;2022-12-18T15:01:28;-0.70;97.90
10980;DHT22;5543;51.734;8.744;2022-12-18T15:04:00;-0.80;97.90
10980;DHT22;5543;51.734;8.744;2022-12-18T15:06:34;-0.80;98.10
10980;DHT22;5543;51.734;8.744;2022-12-18T15:09:21;-0.80;98.40
10980;DHT22;5543;51.734;8.744;2022-12-18T15:11:56;-0.90;98.10
10980;DHT22;5543;51.734;8.744;2022-12-18T15:14:34;-0.80;97.80
10980;DHT22;5543;51.734;8.744;2022-12-18T15:17:14;-0.70;97.70
10980;DHT22;5543;51.734;8.744;2022-12-18T15:19:45;-0.80;98.00
10980;DHT22;5543;51.734;8.744;2022-12-18T15:22:21;-0.80;97.70
10980;DHT22;5543;51.734;8.744;2022-12-18T15:24:53;-0.80;97.70
10980;DHT22;5543;51.734;8.744;2022-12-18T15:27:26;-0.80;97.80
10980;DHT22;5543;51.734;8.744;2022-12-18T15:30:19;-0.80;97.90
10980;DHT22;5543;51.734;8.744;2022-12-18T15:32:51;-0.80;98.10
10980;DHT22;5543;51.734;8.744;2022-12-18T15:35:24;-0.80;97.60
10980;DHT22;5543;51.734;8.744;2022-12-18T15:37:55;-0.80;97.70
10980;DHT22;5543;51.734;8.744;2022-12-18T15:40:27;-0.70;97.50
10980;DHT22;5543;51.734;8.744;2022-12-18T15:42:56;-0.70;97.70
10980;DHT22;5543;51.734;8.744;2022-12-18T15:45:43;-0.70;97.50
10980;DHT22;5543;51.734;8.744;2022-12-18T15:48:20;-0.70;97.60
10980;DHT22;5543;51.734;8.744;2022-12-18T15:50:52;-0.70;97.10
10980;DHT22;5543;51.734;8.744;2022-12-18T15:53:25;-0.60;97.10
10980;DHT22;5543;51.734;8.744;2022-12-18T15:55:58;-0.60;97.20
10980;DHT22;5543;51.734;8.744;2022-12-18T15:58:46;-0.60;97.10
10980;DHT22;5543;51.734;8.744;2022-12-18T16:01:17;-0.60;97.20
10980;DHT22;5543;51.734;8.744;2022-12-18T16:03:51;-0.60;97.30
10980;DHT22;5543;51.734;8.744;2022-12-18T16:06:21;-0.70;97.60
10980;DHT22;5543;51.734;8.744;2022-12-18T16:08:51;-0.70;97.40
10980;DHT22;5543;51.734;8.744;2022-12-18T16:11:25;-0.70;97.40
10980;DHT22;5543;51.734;8.744;2022-12-18T16:14:16;-0.80;97.50
10980;DHT22;5543;51.734;8.744;2022-12-18T16:16:49;-0.70;97.30
10980;DHT22;5543;51.734;8.744;2022-12-18T16:19:20;-0.70;97.30
10980;DHT22;5543;51.734;8.744;2022-12-18T16:21:52;-0.70;97.80
10980;DHT22;5543;51.734;8.744;2022-12-18T16:24:25;-0.70;97.70
10980;DHT22;5543;51.734;8.744;2022-12-18T16:26:59;-0.70;97.30
10980;DHT22;5543;51.734;8.744;2022-12-18T16:29:29;-0.70;97.50
10980;DHT22;5543;51.734;8.744;2022-12-18T16:32:00;-0.70;97.60
10980;DHT22;5543;51.734;8.744;2022-12-18T16:34:31;-0.80;97.70
10980;DHT22;5543;51.734;8.744;2022-12-18T16:37:04;-0.80;97.70